»·PEaware :: AWE1649 KPHX-KSNA

AWE1649 :: KPHX-KSNA

FLIGHT INFORMATION

Flight Status: Arrived
Operator:
US Airways
More flights by this operator :: More flights under this callsign
Pilot: Walter P. (10403)
Aircraft: AIRBUS A321
(A321)
More flights by this aircraft type
Origin: KPHX Phoenix Sky Harbor Intl
United States
Destination: KSNA John Wayne-Orange Co
United States
More flights between these airports :: More routes between these airports
Route: KEENS2 HRRBR EMLLD DSNEE4
File this flight plan on PilotEdge
Remarks:
Altitude:
(Current/Filed)
34,000ft
Speed:
(Current/Filed)
453kts
Departed: 20-May-20 05:09 PM
Arrived: 20-May-20 06:20 PM
Distance/Time
Traveled:
293nm/1:11
Distance/Time
To Go:
Arrived

Flight Plot

Page will automatically refresh every two minutes.


Map Options




Map Legend


Flown Route
Filed Route
Departure Airport
Arrival Airport
Navaid (VOR, NDB)
Fix

Horizontal Profiles

Position Reports

Time Latitude Longitude Heading Altitude Ground
Speed
20-May-20 16:34 33.437176 -111.999851 90 1132ft 0kts
20-May-20 16:35 33.437176 -111.999851 90 1132ft 0kts
20-May-20 16:36 33.437176 -111.999851 90 1132ft 0kts
20-May-20 16:37 33.437176 -111.999851 90 1132ft 0kts
20-May-20 16:38 33.437176 -111.999851 90 1132ft 0kts
20-May-20 16:39 33.437176 -111.999851 90 1132ft 0kts
20-May-20 16:39 33.437176 -111.999851 90 1132ft 0kts
20-May-20 16:41 33.437176 -111.999851 90 1132ft 0kts
20-May-20 16:42 33.437176 -111.999851 90 1132ft 0kts
20-May-20 16:42 33.437176 -111.999851 90 1132ft 0kts
20-May-20 16:43 33.437176 -111.999851 90 1132ft 0kts
20-May-20 16:45 33.437176 -111.999851 90 1132ft 0kts
20-May-20 16:45 33.437176 -111.999851 90 1132ft 0kts
20-May-20 16:46 33.437176 -111.999851 90 1132ft 0kts
20-May-20 16:48 33.437176 -111.999851 90 1132ft 0kts
20-May-20 16:48 33.437176 -111.999851 90 1132ft 0kts
20-May-20 16:49 33.437176 -111.999851 90 1132ft 0kts
20-May-20 16:50 33.437176 -111.999851 90 1132ft 0kts
20-May-20 16:51 33.437176 -111.999851 90 1132ft 0kts
20-May-20 16:52 33.437176 -111.999851 90 1132ft 0kts
20-May-20 16:53 33.437176 -111.999851 90 1132ft 0kts
20-May-20 16:54 33.437176 -111.999921 90 1132ft 0kts
20-May-20 16:55 33.436885 -112.000320 0 1132ft 1kts
20-May-20 16:56 33.436821 -112.000317 359 1132ft 0kts
20-May-20 16:57 33.436821 -112.000317 359 1132ft 0kts
20-May-20 16:58 33.436821 -112.000317 359 1132ft 0kts
20-May-20 16:59 33.437342 -112.000319 359 1132ft 4kts
20-May-20 17:00 33.438528 -112.000322 359 1133ft 1kts
20-May-20 17:01 33.439728 -112.003286 270 1133ft 20kts
20-May-20 17:02 33.439752 -112.011279 270 1129ft 23kts
20-May-20 17:03 33.439759 -112.019141 269 1123ft 23kts
20-May-20 17:04 33.439765 -112.026768 270 1119ft 20kts
20-May-20 17:05 33.439939 -112.029583 332 1118ft 0kts
20-May-20 17:06 33.439939 -112.029583 332 1118ft 0kts
20-May-20 17:07 33.440864 -112.028129 89 1119ft 17kts
20-May-20 17:08 33.440826 -111.987460 88 1801ft 185kts
20-May-20 17:09 33.437680 -111.924564 93 3699ft 211kts
20-May-20 17:10 33.417469 -111.854367 161 5655ft 243kts
20-May-20 17:11 33.356382 -111.868108 240 8034ft 243kts
20-May-20 17:12 33.357316 -111.947463 276 7986ft 242kts
20-May-20 17:13 33.366975 -112.035862 279 8722ft 282kts
20-May-20 17:14 33.380932 -112.129107 279 11058ft 302kts
20-May-20 17:15 33.396560 -112.234441 279 13061ft 332kts
20-May-20 17:16 33.412959 -112.345837 278 15256ft 349kts
20-May-20 17:17 33.429777 -112.460918 277 17603ft 354kts
20-May-20 17:18 33.446444 -112.578030 276 19674ft 360kts
20-May-20 17:19 33.451301 -112.698981 269 21433ft 368kts
20-May-20 17:20 33.458326 -112.827753 278 22051ft 406kts
20-May-20 17:21 33.483298 -112.965023 280 22860ft 432kts
20-May-20 17:22 33.509632 -113.106076 281 24208ft 438kts
20-May-20 17:23 33.535795 -113.247518 281 25867ft 431kts
20-May-20 17:24 33.561413 -113.387053 281 27364ft 426kts
20-May-20 17:25 33.586495 -113.524468 281 28672ft 421kts
20-May-20 17:26 33.612016 -113.661189 280 29808ft 417kts
20-May-20 17:27 33.637111 -113.796561 281 30832ft 415kts
20-May-20 17:28 33.673632 -113.926994 291 31791ft 413kts
20-May-20 17:29 33.721648 -114.052075 291 32652ft 410kts
20-May-20 17:30 33.758606 -114.180023 281 33369ft 404kts
20-May-20 17:31 33.777019 -114.312161 277 33922ft 399kts
20-May-20 17:32 33.792373 -114.444085 277 33936ft 399kts
20-May-20 17:33 33.807576 -114.576084 277 33937ft 398kts
20-May-20 17:34 33.822623 -114.707997 276 33935ft 398kts
20-May-20 17:35 33.837520 -114.839658 277 33937ft 397kts
20-May-20 17:36 33.852207 -114.971231 277 33937ft 396kts
20-May-20 17:37 33.866678 -115.102032 277 33943ft 396kts
20-May-20 17:38 33.881122 -115.233478 277 33957ft 395kts
20-May-20 17:39 33.895349 -115.364033 277 33963ft 395kts
20-May-20 17:40 33.909463 -115.494822 277 33963ft 394kts
20-May-20 17:41 33.923442 -115.625653 277 33416ft 391kts
20-May-20 17:42 33.933508 -115.756989 275 32398ft 389kts
20-May-20 17:43 33.942735 -115.887973 275 31237ft 395kts
20-May-20 17:44 33.952057 -116.021363 275 28073ft 407kts
20-May-20 17:45 33.961247 -116.158515 273 24503ft 419kts
20-May-20 17:46 33.952525 -116.299529 263 23952ft 415kts
20-May-20 17:47 33.936566 -116.428278 264 22917ft 369kts
20-May-20 17:48 33.921977 -116.546075 263 21234ft 350kts
20-May-20 17:49 33.907230 -116.660615 263 19187ft 343kts
20-May-20 17:50 33.892809 -116.773558 264 17227ft 335kts
20-May-20 17:51 33.880919 -116.884088 263 15203ft 331kts
20-May-20 17:52 33.868973 -116.992974 263 12920ft 326kts
20-May-20 17:53 33.857067 -117.100044 263 11058ft 321kts
20-May-20 17:54 33.845612 -117.202451 263 9916ft 288kts
20-May-20 17:55 33.835059 -117.296405 263 8498ft 276kts
20-May-20 17:56 33.825312 -117.382316 263 8008ft 246kts
20-May-20 17:57 33.817576 -117.464420 270 7998ft 247kts
20-May-20 17:58 33.817225 -117.546894 271 7281ft 245kts
20-May-20 17:59 33.816900 -117.629089 271 6045ft 238kts
20-May-20 18:00 33.816793 -117.707547 270 4886ft 222kts
20-May-20 18:01 33.815016 -117.780024 247 4036ft 218kts
20-May-20 18:02 33.762707 -117.810764 213 2986ft 202kts
20-May-20 18:03 33.719861 -117.839823 212 1854ft 152kts
20-May-20 18:04 33.680728 -117.867491 208 2141ft 204kts
20-May-20 18:05 33.622172 -117.902664 205 3804ft 250kts
20-May-20 18:06 33.562778 -117.942101 204 3011ft 247kts
20-May-20 18:07 33.539090 -118.002347 304 2985ft 241kts
20-May-20 18:08 33.603275 -118.015526 2 2988ft 249kts
20-May-20 18:09 33.672344 -118.007958 16 2972ft 252kts
20-May-20 18:10 33.737179 -117.973971 22 2994ft 255kts
20-May-20 18:11 33.798769 -117.940283 23 2988ft 239kts
20-May-20 18:12 33.856034 -117.907810 22 2876ft 216kts
20-May-20 18:13 33.878035 -117.860209 134 2187ft 190kts
20-May-20 18:14 33.834155 -117.823652 150 2299ft 192kts
20-May-20 18:15 33.786669 -117.804225 176 2225ft 176kts
20-May-20 18:17 33.745335 -117.824675 210 1575ft 158kts
20-May-20 18:18 33.706654 -117.849113 209 658ft 148kts
20-May-20 18:19 33.673208 -117.870424 208 65ft 74kts
20-May-20 18:20 33.667509 -117.872800 79 65ft 8kts
20-May-20 18:21 33.667836 -117.872257 42 65ft 7kts
20-May-20 18:22 33.671392 -117.868622 32 65ft 21kts
20-May-20 18:23 33.675845 -117.865348 27 65ft 14kts
20-May-20 18:24 33.676062 -117.864468 115 65ft 0kts
20-May-20 18:25 33.676062 -117.864468 115 65ft 0kts
20-May-20 18:26 33.676062 -117.864468 115 65ft 0kts
20-May-20 18:27 33.676062 -117.864468 115 65ft 0kts

Navigation Log

Ident Type
Flight plan parsing failed, navigation log unavailable